Time;durP1;ratioP1;P1;durP2;ratioP2;P2;SDS_P1;SDS_P2;PMS_P1;PMS_P2;Temp;Humidity;BMP_temperature;BMP_pressure;BME280_temperature;BME280_humidity;BME280_pressure;Samples;Min_cycle;Max_cycle;Signal;HPM_P1;HPM_P2
2023/01/10 00:00:18;;;;;;;59.75;31.40;;;;;;;;;;5116388;28;20102;-73
2023/01/10 00:03:04;;;;;;;59.88;33.20;;;;;;;;;;5116586;28;20034;-75
2023/01/10 00:05:50;;;;;;;53.60;29.58;;;;;;;;;;5116438;28;20020;-73
2023/01/10 00:08:35;;;;;;;52.70;29.27;;;;;;;;;;5114646;28;20024;-75
2023/01/10 00:14:27;;;;;;;54.85;28.80;;;;;;;;;;5116350;28;20031;-74
2023/01/10 00:17:13;;;;;;;50.40;27.27;;;;;;;;;;5101147;28;20372;-74
2023/01/10 00:19:58;;;;;;;49.72;27.27;;;;;;;;;;5102360;28;20535;-72
2023/01/10 00:22:44;;;;;;;51.08;28.65;;;;;;;;;;5113380;28;20023;-73
2023/01/10 00:25:32;;;;;;;51.03;27.92;;;;;;;;;;5115293;28;20356;-74
2023/01/10 00:28:20;;;;;;;50.55;28.48;;;;;;;;;;5116463;28;20360;-74
2023/01/10 00:31:07;;;;;;;53.65;29.83;;;;;;;;;;5113999;28;20023;-73
2023/01/10 00:33:52;;;;;;;54.47;29.15;;;;;;;;;;5114747;28;20035;-72
2023/01/10 00:36:38;;;;;;;55.42;28.90;;;;;;;;;;5116120;28;20046;-74
2023/01/10 00:39:26;;;;;;;55.95;29.67;;;;;;;;;;5115820;28;20383;-73
2023/01/10 00:45:18;;;;;;;54.67;30.00;;;;;;;;;;5114659;28;20359;-73
2023/01/10 00:48:04;;;;;;;56.95;32.05;;;;;;;;;;5116106;28;20016;-73
2023/01/10 00:50:49;;;;;;;62.28;32.67;;;;;;;;;;5115721;28;20065;-74
2023/01/10 00:53:35;;;;;;;63.25;33.65;;;;;;;;;;5100979;28;20081;-73
2023/01/10 00:56:20;;;;;;;67.28;33.80;;;;;;;;;;5115789;28;20031;-73
2023/01/10 00:59:06;;;;;;;65.40;34.30;;;;;;;;;;5115850;28;20045;-72
2023/01/10 01:01:52;;;;;;;61.00;33.53;;;;;;;;;;5115153;28;20039;-73
2023/01/10 01:04:37;;;;;;;60.65;33.17;;;;;;;;;;5101469;28;20024;-71
2023/01/10 01:07:23;;;;;;;63.78;33.95;;;;;;;;;;5100974;28;20450;-72
2023/01/10 01:10:27;;;;;;;58.72;32.15;;;;;;;;;;5115489;28;20102;-73
2023/01/10 01:13:17;;;;;;;66.00;34.90;;;;;;;;;;5101527;28;20061;-74
2023/01/10 01:16:03;;;;;;;61.55;32.83;;;;;;;;;;5115082;28;20031;-73
2023/01/10 01:18:49;;;;;;;64.45;33.97;;;;;;;;;;5099059;28;20340;-73
2023/01/10 01:21:34;;;;;;;63.25;33.50;;;;;;;;;;5115141;28;20444;-73
2023/01/10 01:24:20;;;;;;;61.95;33.38;;;;;;;;;;5115406;28;20037;-73
2023/01/10 01:27:05;;;;;;;62.05;34.67;;;;;;;;;;5115223;28;20023;-73
2023/01/10 01:29:51;;;;;;;63.05;33.58;;;;;;;;;;5115517;28;20069;-73
2023/01/10 01:32:37;;;;;;;59.17;33.45;;;;;;;;;;5115161;28;20018;-74
2023/01/10 01:35:24;;;;;;;63.60;32.83;;;;;;;;;;5100153;28;20354;-73
2023/01/10 01:38:09;;;;;;;64.32;34.63;;;;;;;;;;5114365;28;20015;-74
2023/01/10 01:40:55;;;;;;;66.15;36.67;;;;;;;;;;5115083;28;20049;-74
2023/01/10 01:43:59;;;;;;;66.53;34.17;;;;;;;;;;5115069;28;20126;-74
2023/01/10 01:46:59;;;;;;;61.88;32.92;;;;;;;;;;5115074;28;20043;-73
2023/01/10 01:49:44;;;;;;;67.55;35.03;;;;;;;;;;5114027;28;20016;-74
2023/01/10 01:52:33;;;;;;;63.17;32.58;;;;;;;;;;5114132;28;20019;-74
2023/01/10 01:55:19;;;;;;;62.45;33.20;;;;;;;;;;5100232;28;20030;-74
2023/01/10 01:58:08;;;;;;;62.10;34.08;;;;;;;;;;5113529;28;20031;-74
2023/01/10 02:00:54;;;;;;;63.22;32.40;;;;;;;;;;5112340;28;20109;-73
2023/01/10 02:03:41;;;;;;;60.65;31.98;;;;;;;;;;5099217;28;20360;-74
2023/01/10 02:06:27;;;;;;;61.53;31.15;;;;;;;;;;5114862;28;20140;-73
2023/01/10 02:09:32;;;;;;;61.67;33.72;;;;;;;;;;5114235;28;20034;-74
2023/01/10 02:12:17;;;;;;;61.90;33.92;;;;;;;;;;5114537;28;20077;-74
2023/01/10 02:15:03;;;;;;;61.40;32.75;;;;;;;;;;5114878;28;20020;-74
2023/01/10 02:17:50;;;;;;;67.50;34.10;;;;;;;;;;5114847;28;20084;-74
2023/01/10 02:20:39;;;;;;;61.08;32.42;;;;;;;;;;5114830;28;20031;-74
2023/01/10 02:23:44;;;;;;;64.07;32.37;;;;;;;;;;5113326;28;20031;-75
2023/01/10 02:26:32;;;;;;;58.67;29.90;;;;;;;;;;5116392;28;20034;-73
2023/01/10 02:29:21;;;;;;;65.70;33.05;;;;;;;;;;5116070;28;20031;-74
2023/01/10 02:32:09;;;;;;;64.35;32.40;;;;;;;;;;5118101;28;20359;-73
2023/01/10 02:35:01;;;;;;;59.78;32.50;;;;;;;;;;5118380;28;20611;-73
2023/01/10 02:37:52;;;;;;;60.50;32.50;;;;;;;;;;5118322;28;20038;-74
2023/01/10 02:40:38;;;;;;;64.68;33.90;;;;;;;;;;5116981;28;20023;-74
2023/01/10 02:43:28;;;;;;;59.42;32.92;;;;;;;;;;5115900;28;20020;-74
2023/01/10 02:46:15;;;;;;;59.67;32.13;;;;;;;;;;5103226;28;20443;-74
2023/01/10 02:49:01;;;;;;;60.58;31.50;;;;;;;;;;5103216;28;20033;-74
2023/01/10 02:51:46;;;;;;;59.47;32.58;;;;;;;;;;5118252;28;20409;-74
2023/01/10 02:54:32;;;;;;;60.80;33.10;;;;;;;;;;5118188;28;20111;-73
2023/01/10 02:57:31;;;;;;;63.65;33.85;;;;;;;;;;5103562;28;20024;-75
2023/01/10 03:00:32;;;;;;;66.10;33.20;;;;;;;;;;5117994;28;20047;-73
2023/01/10 03:03:26;;;;;;;64.13;32.85;;;;;;;;;;5118207;28;20038;-76
2023/01/10 03:06:21;;;;;;;64.72;33.83;;;;;;;;;;5117313;28;20110;-73
2023/01/10 03:09:12;;;;;;;64.55;34.72;;;;;;;;;;5121193;28;20038;-72
2023/01/10 03:12:02;;;;;;;56.47;31.92;;;;;;;;;;5106849;28;20170;-74
2023/01/10 03:14:49;;;;;;;58.58;32.90;;;;;;;;;;5105511;28;20062;-74
2023/01/10 03:17:35;;;;;;;62.10;31.98;;;;;;;;;;5118617;28;20102;-74
2023/01/10 03:20:22;;;;;;;64.70;32.58;;;;;;;;;;5103573;28;20043;-74
2023/01/10 03:23:08;;;;;;;67.80;34.47;;;;;;;;;;5102482;28;20103;-74
2023/01/10 03:25:55;;;;;;;60.25;32.47;;;;;;;;;;5103874;28;20098;-74
2023/01/10 03:28:44;;;;;;;60.90;32.55;;;;;;;;;;5117716;28;20415;-74
2023/01/10 03:31:35;;;;;;;61.25;32.88;;;;;;;;;;5103624;28;20491;-74
2023/01/10 03:34:21;;;;;;;59.90;32.83;;;;;;;;;;5103270;28;20073;-74
2023/01/10 03:37:11;;;;;;;61.13;32.85;;;;;;;;;;5118278;28;20019;-74
2023/01/10 03:40:06;;;;;;;60.72;33.15;;;;;;;;;;5118333;28;20108;-73
2023/01/10 03:45:59;;;;;;;56.42;31.42;;;;;;;;;;5123976;28;20401;-74
2023/01/10 03:48:46;;;;;;;58.35;30.50;;;;;;;;;;5122969;28;20448;-74
2023/01/10 03:51:32;;;;;;;59.92;32.28;;;;;;;;;;5103067;28;20090;-73
2023/01/10 03:54:18;;;;;;;55.20;30.10;;;;;;;;;;5117331;28;20045;-74
2023/01/10 03:57:04;;;;;;;62.58;33.53;;;;;;;;;;5117572;28;20440;-74
2023/01/10 03:59:52;;;;;;;54.97;30.92;;;;;;;;;;5117236;28;20024;-73
2023/01/10 04:02:37;;;;;;;63.60;32.88;;;;;;;;;;5117016;28;20030;-74
2023/01/10 04:05:23;;;;;;;58.25;31.23;;;;;;;;;;5101663;28;20389;-74
2023/01/10 04:08:09;;;;;;;58.90;31.92;;;;;;;;;;5102995;28;20023;-74
2023/01/10 04:10:55;;;;;;;60.42;32.17;;;;;;;;;;5116454;28;20353;-75
2023/01/10 04:13:41;;;;;;;59.72;31.13;;;;;;;;;;5116882;28;20016;-74
2023/01/10 04:16:27;;;;;;;61.60;30.65;;;;;;;;;;5116245;28;20020;-74
2023/01/10 04:19:12;;;;;;;54.03;30.58;;;;;;;;;;5101427;28;20012;-74
2023/01/10 04:21:58;;;;;;;60.15;32.00;;;;;;;;;;5101019;28;20016;-74
2023/01/10 04:24:45;;;;;;;61.70;33.17;;;;;;;;;;5100344;28;20165;-73
2023/01/10 04:27:31;;;;;;;58.10;31.92;;;;;;;;;;5115838;28;20019;-73
2023/01/10 04:30:17;;;;;;;60.50;32.80;;;;;;;;;;5115887;28;20016;-74
2023/01/10 04:33:03;;;;;;;60.90;31.85;;;;;;;;;;5101383;28;20045;-75
2023/01/10 04:35:51;;;;;;;62.15;31.58;;;;;;;;;;5101848;28;20155;-73
2023/01/10 04:38:36;;;;;;;64.38;32.13;;;;;;;;;;5115547;28;20034;-73
2023/01/10 04:41:22;;;;;;;58.25;30.98;;;;;;;;;;5115006;28;20124;-74
2023/01/10 04:44:08;;;;;;;60.35;31.42;;;;;;;;;;5101606;28;20030;-74
2023/01/10 04:46:53;;;;;;;64.35;34.00;;;;;;;;;;5115529;28;20011;-74
2023/01/10 04:49:39;;;;;;;61.50;33.58;;;;;;;;;;5100968;28;20041;-74
2023/01/10 04:52:27;;;;;;;72.57;36.53;;;;;;;;;;5115171;28;20020;-72
2023/01/10 04:55:12;;;;;;;65.55;34.90;;;;;;;;;;5098819;28;20043;-73
2023/01/10 04:57:59;;;;;;;61.95;33.70;;;;;;;;;;5115623;28;20027;-74
2023/01/10 05:00:44;;;;;;;60.03;32.67;;;;;;;;;;5100087;28;20204;-73
2023/01/10 05:03:30;;;;;;;64.22;33.65;;;;;;;;;;5114369;28;20020;-74
2023/01/10 05:06:16;;;;;;;64.85;34.65;;;;;;;;;;5115527;28;20448;-74
2023/01/10 05:09:02;;;;;;;61.35;33.53;;;;;;;;;;5114737;28;20499;-74
2023/01/10 05:11:47;;;;;;;67.50;34.45;;;;;;;;;;5115191;28;20162;-72
2023/01/10 05:14:33;;;;;;;69.13;34.80;;;;;;;;;;5113787;28;20351;-77
2023/01/10 05:17:19;;;;;;;62.28;33.08;;;;;;;;;;5100873;28;20027;-77
2023/01/10 05:20:05;;;;;;;62.20;32.13;;;;;;;;;;5100785;28;20024;-77
2023/01/10 05:22:50;;;;;;;60.75;33.47;;;;;;;;;;5115413;28;20022;-77
2023/01/10 05:25:36;;;;;;;66.82;33.50;;;;;;;;;;5100428;28;20034;-77
2023/01/10 05:28:22;;;;;;;64.57;35.15;;;;;;;;;;5115984;28;20020;-77
2023/01/10 05:31:08;;;;;;;67.95;35.50;;;;;;;;;;5115748;28;20020;-76
2023/01/10 05:33:54;;;;;;;65.90;34.38;;;;;;;;;;5115750;28;20028;-76
2023/01/10 05:36:39;;;;;;;63.75;33.90;;;;;;;;;;5114965;28;20464;-77
2023/01/10 05:39:25;;;;;;;63.97;33.80;;;;;;;;;;5114278;28;20055;-77
2023/01/10 05:42:11;;;;;;;66.20;34.00;;;;;;;;;;5114650;28;20120;-76
2023/01/10 05:44:56;;;;;;;62.47;35.53;;;;;;;;;;5114549;28;20077;-76
2023/01/10 05:47:42;;;;;;;66.90;35.65;;;;;;;;;;5114692;28;20015;-77
2023/01/10 05:50:28;;;;;;;66.53;35.72;;;;;;;;;;5114755;28;20019;-77
2023/01/10 05:53:13;;;;;;;67.55;35.33;;;;;;;;;;5115327;28;20136;-77
2023/01/10 05:56:00;;;;;;;69.40;35.72;;;;;;;;;;5114162;28;20023;-78
2023/01/10 05:58:46;;;;;;;63.95;35.35;;;;;;;;;;5100431;28;20457;-79
2023/01/10 06:01:31;;;;;;;64.20;35.55;;;;;;;;;;5113567;28;20055;-77
2023/01/10 06:04:17;;;;;;;65.18;35.08;;;;;;;;;;5115847;28;20405;-77
2023/01/10 06:07:02;;;;;;;66.55;36.33;;;;;;;;;;5119216;28;20016;-77
2023/01/10 06:09:50;;;;;;;66.30;35.60;;;;;;;;;;5118838;28;20011;-77
2023/01/10 06:12:38;;;;;;;68.25;36.28;;;;;;;;;;5117832;28;20030;-77
2023/01/10 06:15:23;;;;;;;69.25;38.22;;;;;;;;;;5119093;28;20038;-76
2023/01/10 06:18:09;;;;;;;71.22;38.13;;;;;;;;;;5120082;27;20039;-77
2023/01/10 06:20:54;;;;;;;67.07;37.13;;;;;;;;;;5116981;28;20128;-77
2023/01/10 06:23:40;;;;;;;77.03;39.47;;;;;;;;;;5118508;28;20027;-78
2023/01/10 06:26:25;;;;;;;74.53;39.45;;;;;;;;;;5118356;28;20436;-78
2023/01/10 06:29:11;;;;;;;74.40;39.95;;;;;;;;;;5118583;28;20431;-78
2023/01/10 06:31:57;;;;;;;75.15;40.20;;;;;;;;;;5118352;28;20023;-77
2023/01/10 06:34:42;;;;;;;71.60;39.92;;;;;;;;;;5118302;28;20448;-77
2023/01/10 06:37:28;;;;;;;70.47;38.72;;;;;;;;;;5118247;28;20023;-77
2023/01/10 06:40:14;;;;;;;75.85;40.85;;;;;;;;;;5119489;28;20076;-78
2023/01/10 06:42:59;;;;;;;68.75;37.75;;;;;;;;;;5119731;28;20020;-77
2023/01/10 06:45:45;;;;;;;66.03;36.33;;;;;;;;;;5104107;28;20022;-77
2023/01/10 06:48:30;;;;;;;69.88;36.33;;;;;;;;;;5118989;28;20011;-78
2023/01/10 06:51:16;;;;;;;67.20;36.03;;;;;;;;;;5118098;28;20019;-76
2023/01/10 06:54:02;;;;;;;71.80;36.60;;;;;;;;;;5119050;28;20026;-78
2023/01/10 06:56:47;;;;;;;66.35;34.75;;;;;;;;;;5118333;28;20034;-78
2023/01/10 06:59:33;;;;;;;68.18;38.03;;;;;;;;;;5103673;28;20023;-78
2023/01/10 07:02:19;;;;;;;67.07;35.92;;;;;;;;;;5116979;28;20079;-77
2023/01/10 07:05:04;;;;;;;72.75;39.92;;;;;;;;;;5118249;28;20045;-77
2023/01/10 07:07:50;;;;;;;71.07;38.97;;;;;;;;;;5102473;28;20012;-79
2023/01/10 07:10:38;;;;;;;73.03;38.88;;;;;;;;;;5118659;28;20084;-78
2023/01/10 07:13:24;;;;;;;74.72;41.22;;;;;;;;;;5117210;28;20023;-79
2023/01/10 07:16:10;;;;;;;78.30;41.35;;;;;;;;;;5116566;28;20066;-81
2023/01/10 07:18:57;;;;;;;77.70;42.17;;;;;;;;;;5101594;28;20020;-77
2023/01/10 07:21:42;;;;;;;78.05;42.40;;;;;;;;;;5116355;28;20084;-79
2023/01/10 07:24:28;;;;;;;84.03;43.45;;;;;;;;;;5118167;28;20023;-77
2023/01/10 07:27:14;;;;;;;77.80;42.13;;;;;;;;;;5117839;28;20043;-77
2023/01/10 07:29:59;;;;;;;80.20;42.90;;;;;;;;;;5117612;28;20026;-78
2023/01/10 07:32:45;;;;;;;82.65;43.83;;;;;;;;;;5101389;28;20020;-79
2023/01/10 07:35:31;;;;;;;83.13;43.38;;;;;;;;;;5117034;28;20027;-78
2023/01/10 07:38:16;;;;;;;77.80;42.30;;;;;;;;;;5117612;28;20016;-78
2023/01/10 07:41:02;;;;;;;71.85;38.45;;;;;;;;;;5116671;28;20103;-78
2023/01/10 07:43:48;;;;;;;90.78;50.30;;;;;;;;;;5117397;28;20031;-78
2023/01/10 07:46:33;;;;;;;72.32;39.33;;;;;;;;;;5117151;28;20130;-78
2023/01/10 07:49:19;;;;;;;77.20;41.50;;;;;;;;;;5116632;28;20020;-77
2023/01/10 07:52:07;;;;;;;75.63;42.78;;;;;;;;;;5116772;28;20098;-77
2023/01/10 07:54:53;;;;;;;74.65;40.80;;;;;;;;;;5101915;28;20095;-78
2023/01/10 07:57:38;;;;;;;75.72;42.55;;;;;;;;;;5116618;28;20019;-77
2023/01/10 08:00:24;;;;;;;71.88;39.10;;;;;;;;;;5102737;28;20040;-78
2023/01/10 08:03:10;;;;;;;66.18;37.53;;;;;;;;;;5117316;28;20030;-78
2023/01/10 08:05:57;;;;;;;69.85;35.45;;;;;;;;;;5116255;28;20077;-78
2023/01/10 08:08:42;;;;;;;67.10;36.05;;;;;;;;;;5116786;28;20027;-77
2023/01/10 08:11:28;;;;;;;61.15;35.00;;;;;;;;;;5118066;28;20052;-78
2023/01/10 08:14:13;;;;;;;64.65;35.38;;;;;;;;;;5117730;28;20419;-78
2023/01/10 08:16:59;;;;;;;58.65;33.08;;;;;;;;;;5117253;28;20023;-77
2023/01/10 08:19:45;;;;;;;56.78;32.67;;;;;;;;;;5120609;27;20410;-79
2023/01/10 08:22:30;;;;;;;56.78;33.60;;;;;;;;;;5117434;28;20019;-77
2023/01/10 08:25:16;;;;;;;55.47;31.63;;;;;;;;;;5117685;28;20524;-78
2023/01/10 08:28:02;;;;;;;59.10;33.10;;;;;;;;;;5117605;28;20019;-77
2023/01/10 08:30:47;;;;;;;57.05;33.55;;;;;;;;;;5104245;28;20015;-77
2023/01/10 08:33:33;;;;;;;60.58;33.50;;;;;;;;;;5115326;28;20051;-77
2023/01/10 08:36:20;;;;;;;65.43;35.58;;;;;;;;;;5118232;28;20114;-78
2023/01/10 08:39:06;;;;;;;62.22;36.65;;;;;;;;;;5133649;28;20183;-79
2023/01/10 08:41:52;;;;;;;61.47;35.45;;;;;;;;;;5126481;28;20020;-77
2023/01/10 08:44:37;;;;;;;60.58;34.60;;;;;;;;;;5118692;28;20031;-78
2023/01/10 08:47:23;;;;;;;63.08;34.92;;;;;;;;;;5121494;28;20046;-77
2023/01/10 08:50:09;;;;;;;67.38;36.10;;;;;;;;;;5119551;28;20072;-77
2023/01/10 08:52:58;;;;;;;68.90;35.83;;;;;;;;;;5117048;28;20092;-77
2023/01/10 08:55:43;;;;;;;70.45;35.28;;;;;;;;;;5115703;28;20032;-78
2023/01/10 08:58:29;;;;;;;65.57;36.35;;;;;;;;;;5123052;28;20083;-78
2023/01/10 09:01:15;;;;;;;62.65;36.63;;;;;;;;;;5102895;28;20047;-78
2023/01/10 09:04:00;;;;;;;65.57;36.70;;;;;;;;;;5116673;28;20019;-78
2023/01/10 09:06:46;;;;;;;66.85;36.33;;;;;;;;;;5115421;28;20368;-79
2023/01/10 09:09:33;;;;;;;63.55;35.80;;;;;;;;;;5115303;28;20044;-79
2023/01/10 09:15:26;;;;;;;65.60;37.28;;;;;;;;;;5116571;28;20355;-78
2023/01/10 09:18:13;;;;;;;75.70;39.83;;;;;;;;;;5116536;28;20400;-78
2023/01/10 09:20:58;;;;;;;71.28;39.25;;;;;;;;;;5114177;28;20035;-78
2023/01/10 09:23:44;;;;;;;63.15;36.83;;;;;;;;;;5102623;28;20123;-79
2023/01/10 09:26:30;;;;;;;65.60;37.50;;;;;;;;;;5117366;28;20020;-78
2023/01/10 09:29:15;;;;;;;69.30;38.42;;;;;;;;;;5115388;28;20023;-78
2023/01/10 09:32:01;;;;;;;69.75;39.17;;;;;;;;;;5114963;28;20020;-78
2023/01/10 09:34:46;;;;;;;68.95;39.35;;;;;;;;;;5101646;28;20488;-78
2023/01/10 09:37:33;;;;;;;74.93;39.67;;;;;;;;;;5116295;28;20027;-79
2023/01/10 09:40:23;;;;;;;65.97;37.78;;;;;;;;;;5115150;28;20031;-79
2023/01/10 09:43:15;;;;;;;62.22;36.17;;;;;;;;;;5115240;28;20027;-77
2023/01/10 09:46:11;;;;;;;67.00;37.88;;;;;;;;;;5113902;28;20062;-78
2023/01/10 09:48:59;;;;;;;59.30;36.55;;;;;;;;;;5099537;28;20325;-79
2023/01/10 09:51:47;;;;;;;64.10;36.70;;;;;;;;;;5116509;28;20031;-79
2023/01/10 09:54:40;;;;;;;66.55;39.20;;;;;;;;;;5122751;28;20049;-78
2023/01/10 09:57:26;;;;;;;69.03;40.10;;;;;;;;;;5130187;28;20528;-79
2023/01/10 10:00:19;;;;;;;63.45;37.55;;;;;;;;;;5101810;28;20348;-79
2023/01/10 10:03:13;;;;;;;70.43;40.08;;;;;;;;;;5102018;28;20036;-79
2023/01/10 10:05:59;;;;;;;70.05;37.95;;;;;;;;;;5118008;28;20015;-80
2023/01/10 10:08:45;;;;;;;65.10;37.80;;;;;;;;;;5117005;28;20307;-79
2023/01/10 10:11:44;;;;;;;71.90;39.88;;;;;;;;;;5114227;28;20436;-79
2023/01/10 10:14:56;;;;;;;71.63;40.60;;;;;;;;;;5100199;28;20356;-78
2023/01/10 10:18:00;;;;;;;79.10;43.15;;;;;;;;;;5114552;28;20027;-79
2023/01/10 10:20:49;;;;;;;73.00;41.17;;;;;;;;;;5113618;28;20023;-79
2023/01/10 10:23:43;;;;;;;74.00;42.40;;;;;;;;;;5114665;28;20122;-79
2023/01/10 10:26:33;;;;;;;74.13;41.70;;;;;;;;;;5116145;28;20050;-77
2023/01/10 10:29:19;;;;;;;75.97;43.60;;;;;;;;;;5116107;28;20076;-79
2023/01/10 10:32:13;;;;;;;89.30;46.35;;;;;;;;;;5114785;28;20040;-78
2023/01/10 10:34:59;;;;;;;88.88;46.00;;;;;;;;;;5114937;28;20035;-79
2023/01/10 10:37:47;;;;;;;88.30;48.10;;;;;;;;;;5115282;28;20106;-79
2023/01/10 10:40:36;;;;;;;90.07;47.78;;;;;;;;;;5120052;28;20023;-78
2023/01/10 10:43:25;;;;;;;88.93;47.03;;;;;;;;;;5118444;28;20110;-78
2023/01/10 10:46:17;;;;;;;78.97;47.00;;;;;;;;;;5117760;28;20024;-79
2023/01/10 10:49:05;;;;;;;79.18;46.88;;;;;;;;;;5116254;28;20168;-78
2023/01/10 10:51:52;;;;;;;81.95;48.40;;;;;;;;;;5122107;28;20019;-77
2023/01/10 10:54:37;;;;;;;83.82;49.08;;;;;;;;;;5121429;28;20035;-78
2023/01/10 10:57:25;;;;;;;79.82;45.33;;;;;;;;;;5122730;28;20015;-79
2023/01/10 11:00:15;;;;;;;81.82;47.58;;;;;;;;;;5136480;28;20043;-78
2023/01/10 11:03:18;;;;;;;93.05;50.17;;;;;;;;;;5135093;28;20031;-78
2023/01/10 11:06:05;;;;;;;86.80;51.17;;;;;;;;;;5139004;28;20027;-77
2023/01/10 11:08:54;;;;;;;94.38;53.15;;;;;;;;;;5139316;28;20102;-77
2023/01/10 11:11:44;;;;;;;95.65;55.58;;;;;;;;;;5138402;28;20015;-75
2023/01/10 11:14:41;;;;;;;95.80;54.25;;;;;;;;;;5134189;28;20011;-79
2023/01/10 11:17:29;;;;;;;102.30;55.20;;;;;;;;;;5135116;28;20016;-78
2023/01/10 11:20:16;;;;;;;102.35;58.45;;;;;;;;;;5120855;28;20023;-77
2023/01/10 11:23:02;;;;;;;104.60;61.03;;;;;;;;;;5137890;28;20030;-78
2023/01/10 11:25:48;;;;;;;103.18;59.55;;;;;;;;;;5129831;28;20023;-78
2023/01/10 11:28:35;;;;;;;103.90;60.13;;;;;;;;;;5119885;28;20020;-79
2023/01/10 11:31:28;;;;;;;95.30;53.92;;;;;;;;;;5131313;28;20027;-78
2023/01/10 11:34:42;;;;;;;80.72;49.17;;;;;;;;;;5129071;28;20027;-76
2023/01/10 11:37:31;;;;;;;71.43;42.95;;;;;;;;;;5128870;28;20028;-77
2023/01/10 11:40:22;;;;;;;78.90;42.50;;;;;;;;;;5132617;28;20019;-77
2023/01/10 11:43:27;;;;;;;63.85;41.22;;;;;;;;;;5125497;28;20095;-76
2023/01/10 11:46:15;;;;;;;66.90;39.90;;;;;;;;;;5117419;28;20024;-77
2023/01/10 11:49:13;;;;;;;67.10;42.25;;;;;;;;;;5132256;28;20012;-77
2023/01/10 11:52:02;;;;;;;73.63;45.83;;;;;;;;;;5117559;28;20008;-77
2023/01/10 11:54:48;;;;;;;71.30;44.20;;;;;;;;;;5119055;28;20015;-77
2023/01/10 11:57:33;;;;;;;75.13;46.33;;;;;;;;;;5122821;28;20019;-76
2023/01/10 12:00:19;;;;;;;75.35;46.42;;;;;;;;;;5132703;28;20122;-77
2023/01/10 12:03:26;;;;;;;68.25;42.47;;;;;;;;;;5119822;28;20032;-77
2023/01/10 12:06:16;;;;;;;63.90;39.45;;;;;;;;;;5127192;28;20032;-77
2023/01/10 12:09:02;;;;;;;63.80;38.53;;;;;;;;;;5132440;28;20023;-78
2023/01/10 12:11:59;;;;;;;49.90;34.95;;;;;;;;;;5131429;28;20045;-77
2023/01/10 12:14:45;;;;;;;57.13;34.45;;;;;;;;;;5131514;28;20019;-77
2023/01/10 12:17:33;;;;;;;53.22;33.08;;;;;;;;;;5117876;28;20024;-76
2023/01/10 12:20:20;;;;;;;45.97;30.45;;;;;;;;;;5134895;28;20031;-77
2023/01/10 12:23:09;;;;;;;50.72;30.35;;;;;;;;;;5131680;28;20079;-77
2023/01/10 12:25:55;;;;;;;46.20;30.30;;;;;;;;;;5120661;28;20043;-78
2023/01/10 12:28:52;;;;;;;40.03;25.15;;;;;;;;;;5119147;28;20034;-77
2023/01/10 12:31:38;;;;;;;33.03;22.80;;;;;;;;;;5119085;28;20016;-76
2023/01/10 12:34:38;;;;;;;34.05;23.38;;;;;;;;;;5116960;28;20039;-78
2023/01/10 12:37:35;;;;;;;33.88;21.27;;;;;;;;;;5117751;28;20024;-76
2023/01/10 12:40:24;;;;;;;33.83;22.30;;;;;;;;;;5119602;28;20084;-77
2023/01/10 12:46:51;;;;;;;28.60;19.58;;;;;;;;;;5127172;27;20023;-77
2023/01/10 12:49:43;;;;;;;34.08;21.15;;;;;;;;;;5125274;28;20008;-76
2023/01/10 12:52:45;;;;;;;29.95;20.60;;;;;;;;;;5122784;28;20423;-78
2023/01/10 12:55:39;;;;;;;29.48;19.23;;;;;;;;;;5115888;28;20055;-76
2023/01/10 12:58:31;;;;;;;31.15;20.30;;;;;;;;;;5117126;28;20092;-77
2023/01/10 13:01:39;;;;;;;30.90;20.15;;;;;;;;;;5118812;28;20122;-78
2023/01/10 13:04:25;;;;;;;29.35;19.70;;;;;;;;;;5114800;28;20408;-76
2023/01/10 13:07:11;;;;;;;30.30;19.67;;;;;;;;;;5115967;28;20059;-74
2023/01/10 13:09:57;;;;;;;31.45;20.27;;;;;;;;;;5100973;28;20079;-74
2023/01/10 13:12:45;;;;;;;29.63;20.15;;;;;;;;;;5115499;28;20046;-79
2023/01/10 13:15:33;;;;;;;31.15;20.20;;;;;;;;;;5115906;28;20050;-80
2023/01/10 13:18:27;;;;;;;33.05;20.95;;;;;;;;;;5115481;28;20012;-77
2023/01/10 13:21:12;;;;;;;31.75;20.27;;;;;;;;;;5115054;28;20019;-78
2023/01/10 13:24:18;;;;;;;28.75;20.05;;;;;;;;;;5101157;28;20115;-82
2023/01/10 13:27:04;;;;;;;33.33;21.08;;;;;;;;;;5114738;28;20473;-82
2023/01/10 13:29:50;;;;;;;34.13;21.85;;;;;;;;;;5117305;28;20094;-80
2023/01/10 13:32:37;;;;;;;33.65;21.90;;;;;;;;;;5115822;28;20020;-80
2023/01/10 13:35:24;;;;;;;32.53;21.48;;;;;;;;;;5114991;28;20020;-81
2023/01/10 13:38:28;;;;;;;41.33;25.08;;;;;;;;;;5116123;28;20030;-80
2023/01/10 13:44:17;;;;;;;37.22;23.80;;;;;;;;;;5116822;28;20037;-81
2023/01/10 13:47:03;;;;;;;35.45;22.33;;;;;;;;;;5117843;28;20520;-80
2023/01/10 13:49:49;;;;;;;37.72;23.65;;;;;;;;;;5116739;28;20373;-80
2023/01/10 13:52:34;;;;;;;37.33;23.30;;;;;;;;;;5116195;28;20038;-80
2023/01/10 13:55:24;;;;;;;34.17;22.40;;;;;;;;;;5116374;28;20027;-81
2023/01/10 13:58:16;;;;;;;38.10;23.90;;;;;;;;;;5116551;28;20023;-81
2023/01/10 14:04:16;;;;;;;38.03;24.52;;;;;;;;;;5118376;28;20038;-81
2023/01/10 14:07:21;;;;;;;33.00;23.05;;;;;;;;;;5107188;28;20019;-82
2023/01/10 14:10:09;;;;;;;37.38;24.08;;;;;;;;;;5103575;28;20021;-82
2023/01/10 14:12:56;;;;;;;35.42;23.30;;;;;;;;;;5103248;28;20317;-82
2023/01/10 14:15:44;;;;;;;35.90;22.92;;;;;;;;;;5105901;28;20435;-83
2023/01/10 14:18:34;;;;;;;35.53;22.92;;;;;;;;;;5105985;28;20406;-82
2023/01/10 14:21:23;;;;;;;36.83;24.02;;;;;;;;;;5125000;28;20024;-81
2023/01/10 14:24:19;;;;;;;34.80;23.45;;;;;;;;;;5123140;28;20312;-82
2023/01/10 14:27:06;;;;;;;38.83;25.33;;;;;;;;;;5108216;28;20460;-82
2023/01/10 14:30:01;;;;;;;39.05;24.23;;;;;;;;;;5124069;28;20345;-81
2023/01/10 14:32:49;;;;;;;37.85;23.73;;;;;;;;;;5123369;28;20068;-81
2023/01/10 14:35:38;;;;;;;37.47;23.67;;;;;;;;;;5122786;28;20062;-81
2023/01/10 14:38:28;;;;;;;39.95;24.60;;;;;;;;;;5113338;28;20091;-82
2023/01/10 14:41:20;;;;;;;36.17;24.23;;;;;;;;;;5126131;28;20359;-83
2023/01/10 14:44:09;;;;;;;38.50;24.90;;;;;;;;;;5117480;28;20459;-82
2023/01/10 14:46:55;;;;;;;36.85;24.60;;;;;;;;;;5131847;28;20045;-83
2023/01/10 14:49:50;;;;;;;39.78;24.63;;;;;;;;;;5117485;28;20073;-83
2023/01/10 14:52:35;;;;;;;38.97;25.75;;;;;;;;;;5121502;28;20095;-81
2023/01/10 14:55:21;;;;;;;37.53;23.60;;;;;;;;;;5137966;28;20026;-82
2023/01/10 14:58:15;;;;;;;38.78;24.70;;;;;;;;;;5133896;28;20031;-82
2023/01/10 15:01:01;;;;;;;41.67;23.48;;;;;;;;;;5110941;28;20047;-83
2023/01/10 15:03:47;;;;;;;35.45;23.55;;;;;;;;;;5124353;28;20043;-82
2023/01/10 15:06:49;;;;;;;33.47;22.27;;;;;;;;;;5108221;28;20034;-82
2023/01/10 15:09:35;;;;;;;40.90;22.90;;;;;;;;;;5107757;28;20111;-82
2023/01/10 15:12:21;;;;;;;36.17;21.70;;;;;;;;;;5110317;28;20020;-83
2023/01/10 15:15:11;;;;;;;34.92;21.35;;;;;;;;;;5108434;28;20038;-80
2023/01/10 15:17:58;;;;;;;32.42;20.45;;;;;;;;;;5106705;28;20027;-82
2023/01/10 15:20:43;;;;;;;29.98;19.73;;;;;;;;;;5123646;28;20023;-81
2023/01/10 15:23:33;;;;;;;40.72;22.92;;;;;;;;;;5124688;28;20410;-82
2023/01/10 15:26:20;;;;;;;32.00;19.63;;;;;;;;;;5122422;28;20024;-81
2023/01/10 15:29:18;;;;;;;30.52;19.23;;;;;;;;;;5123628;28;20072;-81
2023/01/10 15:32:07;;;;;;;31.33;20.90;;;;;;;;;;5109030;28;20103;-83
2023/01/10 15:34:53;;;;;;;29.15;19.23;;;;;;;;;;5108355;28;20084;-83
2023/01/10 15:37:44;;;;;;;30.10;20.27;;;;;;;;;;5123464;28;20016;-81
2023/01/10 15:40:31;;;;;;;29.05;19.75;;;;;;;;;;5123393;28;20020;-82
2023/01/10 15:43:17;;;;;;;35.38;22.60;;;;;;;;;;5106702;28;20066;-82
2023/01/10 15:46:04;;;;;;;30.80;20.67;;;;;;;;;;5124447;28;20016;-81
2023/01/10 15:49:00;;;;;;;35.90;20.40;;;;;;;;;;5104327;28;20011;-82
2023/01/10 15:51:46;;;;;;;37.90;21.98;;;;;;;;;;5120940;28;20019;-82
2023/01/10 15:54:32;;;;;;;35.53;21.77;;;;;;;;;;5106091;28;20080;-82
2023/01/10 15:57:26;;;;;;;32.15;21.15;;;;;;;;;;5121024;28;20031;-83
2023/01/10 16:00:14;;;;;;;26.08;18.75;;;;;;;;;;5119830;28;20044;-81
2023/01/10 16:03:00;;;;;;;25.33;17.05;;;;;;;;;;5120377;28;20058;-82
2023/01/10 16:05:50;;;;;;;26.23;17.42;;;;;;;;;;5106220;28;20019;-82
2023/01/10 16:08:37;;;;;;;27.13;17.90;;;;;;;;;;5121018;28;20081;-82
2023/01/10 16:14:29;;;;;;;36.70;21.83;;;;;;;;;;5136736;28;20442;-81
2023/01/10 16:17:15;;;;;;;28.48;18.10;;;;;;;;;;5121763;28;20034;-81
2023/01/10 16:20:01;;;;;;;81.35;35.60;;;;;;;;;;5119895;28;20024;-81
2023/01/10 16:22:47;;;;;;;51.60;24.52;;;;;;;;;;5121151;28;20455;-82
2023/01/10 16:25:37;;;;;;;43.83;24.27;;;;;;;;;;5106907;28;20031;-82
2023/01/10 16:28:24;;;;;;;30.35;18.92;;;;;;;;;;5121914;28;20024;-81
2023/01/10 16:31:11;;;;;;;27.08;18.85;;;;;;;;;;5122353;28;20016;-82
2023/01/10 16:33:56;;;;;;;51.00;30.92;;;;;;;;;;5121495;28;20028;-81
2023/01/10 16:36:42;;;;;;;39.47;22.55;;;;;;;;;;5129270;28;20099;-82
2023/01/10 16:39:28;;;;;;;39.88;24.98;;;;;;;;;;5129193;28;20080;-82
2023/01/10 16:45:18;;;;;;;39.63;25.58;;;;;;;;;;5126918;28;20016;-83